Hovedside
METAR-TAF:

METAR-TAF

Lufthavner :

Ørland, Norge

Ørland hovedflystasjon

breddegrad: 63-42N, lengdegrad: 009-36E, høyde over havet: 0 m

Gjeldene værobservasjon

Denne rapporten ble laget for 32 minutter siden, klokken 13:20 UTC
Vind 15 kt fra Øst-sørøst
Temperatur -2°C
Luftfuktighet 69%
Trykk 1038 hPa
Sikt 10 km eller mer
Få skyer i en høyde av 1500 ft
lavt snøfokk

METAR: ENOL 251320Z 12015KT 9999 DRSN FEW015 M02/M07 Q1038 NOSIG

Tid: 14:52 (13:52 UTC)

Varsel

Varsel gyldig fra 25. klokken 12 UTC til 26. klokken 12 UTC
Vind 17 kt fra Øst-sørøst
Sikt 10 km eller mer
Spredte skyer i en høyde av 2000 ft
Midlertidig
fra 25. klokken 12 UTC til 25. klokken 24 UTC
lavt snøfokk

TAF: ENOL 2512/2612 12017KT 9999 SCT020 TEMPO 2512/2524 DRSN

Værobservasjoner og værvarsel for over 4000 flyplasser (METAR- og TAF-rapporter).

Tilgjengelige stasjoner er representert av de røde og gule prikkene på kartet.

Hold musepekeren over prikken for å se navnet på stasjonen.

Klikk så for å se værobservasjoner og -varsler.

For å forandre kartet kan du klikke på den grønne knappen med svart kryss for å zoome inn, på den grønne knappen med strek for å zoome ut, eller på de grønne pilene for å se tilstøtende kart.


METAR-TAF: